Time;durP1;ratioP1;P1;durP2;ratioP2;P2;SDS_P1;SDS_P2;PMS_P1;PMS_P2;Temp;Humidity;BMP_temperature;BMP_pressure;BME280_temperature;BME280_humidity;BME280_pressure;Samples;Min_cycle;Max_cycle;Signal;HPM_P1;HPM_P2
2022/10/25 00:00:43;;;;;;;8.93;1.00;;;;;;;;;;6280113;22;20018;-47
2022/10/25 00:03:10;;;;;;;2.85;0.60;;;;;;;;;;6286030;22;20527;-44
2022/10/25 00:05:37;;;;;;;1.48;0.30;;;;;;;;;;6279078;22;20038;-43
2022/10/25 00:08:05;;;;;;;3.28;0.85;;;;;;;;;;6256878;22;20061;-44
2022/10/25 00:10:32;;;;;;;1.60;0.32;;;;;;;;;;6274585;22;20011;-47
2022/10/25 00:12:58;;;;;;;1.60;0.40;;;;;;;;;;6281514;22;20019;-42
2022/10/25 00:15:25;;;;;;;2.70;0.55;;;;;;;;;;6275900;22;20015;-45
2022/10/25 00:17:51;;;;;;;1.30;0.20;;;;;;;;;;6283002;22;20011;-42
2022/10/25 00:20:18;;;;;;;1.35;0.30;;;;;;;;;;6276732;22;20030;-45
2022/10/25 00:22:45;;;;;;;2.03;0.60;;;;;;;;;;6282136;22;20023;-43
2022/10/25 00:25:13;;;;;;;3.00;0.90;;;;;;;;;;6280918;22;20012;-44
2022/10/25 00:27:39;;;;;;;1.58;0.50;;;;;;;;;;6284680;22;20021;-42
2022/10/25 00:30:06;;;;;;;1.63;0.40;;;;;;;;;;6283550;22;20071;-45
2022/10/25 00:32:33;;;;;;;1.95;0.50;;;;;;;;;;6277537;22;20011;-42
2022/10/25 00:34:59;;;;;;;1.70;0.50;;;;;;;;;;6286994;22;20346;-43
2022/10/25 00:37:26;;;;;;;1.43;0.30;;;;;;;;;;6282027;22;20019;-43
2022/10/25 00:39:53;;;;;;;2.95;0.57;;;;;;;;;;6287466;22;20446;-43
2022/10/25 00:42:22;;;;;;;1.55;0.40;;;;;;;;;;6283081;22;20015;-43
2022/10/25 00:44:53;;;;;;;2.22;0.73;;;;;;;;;;6283995;22;20438;-42
2022/10/25 00:47:28;;;;;;;2.53;1.13;;;;;;;;;;6285316;22;20012;-45
2022/10/25 00:49:57;;;;;;;3.50;0.50;;;;;;;;;;6282189;22;20154;-43
2022/10/25 00:52:24;;;;;;;1.70;0.40;;;;;;;;;;6277364;22;20088;-43
2022/10/25 00:54:52;;;;;;;1.70;0.40;;;;;;;;;;6286125;22;20116;-43
2022/10/25 00:57:21;;;;;;;1.80;0.60;;;;;;;;;;6281910;22;20068;-44
2022/10/25 00:59:49;;;;;;;1.63;0.30;;;;;;;;;;6289286;22;20462;-43
2022/10/25 01:02:16;;;;;;;1.73;0.50;;;;;;;;;;6277483;22;20452;-42
2022/10/25 01:04:43;;;;;;;1.98;0.60;;;;;;;;;;6286561;22;20454;-42
2022/10/25 01:07:09;;;;;;;1.52;0.30;;;;;;;;;;6280278;22;20019;-44
2022/10/25 01:09:36;;;;;;;1.70;0.50;;;;;;;;;;6284827;22;20466;-42
2022/10/25 01:12:04;;;;;;;2.38;0.45;;;;;;;;;;6279471;22;20015;-43
2022/10/25 01:14:31;;;;;;;1.47;0.30;;;;;;;;;;6287796;22;20318;-42
2022/10/25 01:17:01;;;;;;;1.60;0.40;;;;;;;;;;6273673;22;20018;-42
2022/10/25 01:19:36;;;;;;;1.70;0.47;;;;;;;;;;6286120;22;20064;-43
2022/10/25 01:22:04;;;;;;;1.65;0.40;;;;;;;;;;6219791;22;20058;-42
2022/10/25 01:24:51;;;;;;;1.50;0.30;;;;;;;;;;6218911;23;20023;-43
2022/10/25 01:27:35;;;;;;;1.87;0.40;;;;;;;;;;6197527;23;20020;-45
2022/10/25 01:30:10;;;;;;;2.00;0.63;;;;;;;;;;6220853;23;20096;-43
2022/10/25 01:32:41;;;;;;;1.80;0.40;;;;;;;;;;6210534;23;20063;-42
2022/10/25 01:35:13;;;;;;;1.42;0.30;;;;;;;;;;6212122;23;20016;-42
2022/10/25 01:37:42;;;;;;;1.67;0.75;;;;;;;;;;6223249;23;20020;-44
2022/10/25 01:40:12;;;;;;;1.37;0.20;;;;;;;;;;6219187;23;20386;-43
2022/10/25 01:42:43;;;;;;;1.60;0.40;;;;;;;;;;6222547;23;20024;-44
2022/10/25 01:45:13;;;;;;;3.30;1.10;;;;;;;;;;6221130;23;20013;-44
2022/10/25 01:47:43;;;;;;;2.45;0.63;;;;;;;;;;6223506;23;20019;-44
2022/10/25 01:50:12;;;;;;;2.22;0.45;;;;;;;;;;6218171;23;20435;-42
2022/10/25 01:52:39;;;;;;;1.50;0.40;;;;;;;;;;6219785;23;20450;-45
2022/10/25 01:55:07;;;;;;;3.03;0.43;;;;;;;;;;6223567;23;20324;-44
2022/10/25 01:57:42;;;;;;;1.50;0.40;;;;;;;;;;6221800;23;20080;-43
2022/10/25 02:00:10;;;;;;;1.60;0.30;;;;;;;;;;6223575;23;20071;-46
2022/10/25 02:02:42;;;;;;;1.70;0.35;;;;;;;;;;6214543;23;20108;-46
2022/10/25 02:05:15;;;;;;;1.50;0.30;;;;;;;;;;6224821;23;20012;-42
2022/10/25 02:07:43;;;;;;;1.67;0.50;;;;;;;;;;6227095;23;20265;-45
2022/10/25 02:10:11;;;;;;;1.85;0.55;;;;;;;;;;6219863;23;20043;-42
2022/10/25 02:12:44;;;;;;;1.50;0.30;;;;;;;;;;6224403;23;20023;-42
2022/10/25 02:15:13;;;;;;;1.40;0.35;;;;;;;;;;6216557;23;20016;-43
2022/10/25 02:17:42;;;;;;;2.83;0.53;;;;;;;;;;6204523;23;20740;-44
2022/10/25 02:20:12;;;;;;;1.70;0.50;;;;;;;;;;6141906;23;1285508;-43
2022/10/25 02:22:40;;;;;;;1.92;0.63;;;;;;;;;;6240402;22;20015;-43
2022/10/25 02:25:08;;;;;;;2.30;0.40;;;;;;;;;;6257950;22;20023;-44
2022/10/25 02:27:35;;;;;;;7.32;1.15;;;;;;;;;;6254554;22;20019;-44
2022/10/25 02:30:02;;;;;;;1.17;0.20;;;;;;;;;;6251987;22;20085;-44
2022/10/25 02:32:28;;;;;;;5.50;0.73;;;;;;;;;;6254265;22;20015;-43
2022/10/25 02:34:55;;;;;;;2.20;0.40;;;;;;;;;;6258210;22;20088;-44
2022/10/25 02:37:22;;;;;;;2.13;1.10;;;;;;;;;;6248799;22;20011;-43
2022/10/25 02:39:50;;;;;;;1.52;0.28;;;;;;;;;;6258397;22;20028;-42
2022/10/25 02:42:17;;;;;;;1.45;0.22;;;;;;;;;;6247176;22;20517;-42
2022/10/25 02:44:43;;;;;;;1.30;0.23;;;;;;;;;;6255291;22;20069;-43
2022/10/25 02:47:10;;;;;;;1.35;0.30;;;;;;;;;;6247971;22;20069;-44
2022/10/25 02:49:37;;;;;;;1.80;0.80;;;;;;;;;;6272448;22;20019;-44
2022/10/25 02:52:03;;;;;;;1.60;0.30;;;;;;;;;;6289226;22;20057;-42
2022/10/25 02:54:30;;;;;;;1.20;0.20;;;;;;;;;;6284690;22;20019;-42
2022/10/25 02:56:58;;;;;;;1.10;0.20;;;;;;;;;;6284399;22;20523;-44
2022/10/25 02:59:24;;;;;;;1.15;0.32;;;;;;;;;;6251590;22;20011;-44
2022/10/25 03:01:51;;;;;;;1.30;0.40;;;;;;;;;;6287968;22;20011;-42
2022/10/25 03:04:18;;;;;;;1.50;0.57;;;;;;;;;;6281129;22;20015;-42
2022/10/25 03:06:44;;;;;;;1.80;0.30;;;;;;;;;;6288833;22;20488;-43
2022/10/25 03:09:11;;;;;;;1.50;0.33;;;;;;;;;;6283488;22;20047;-42
2022/10/25 03:11:37;;;;;;;2.10;0.60;;;;;;;;;;6286854;22;20015;-44
2022/10/25 03:14:05;;;;;;;1.65;0.40;;;;;;;;;;6283755;22;20019;-43
2022/10/25 03:16:32;;;;;;;1.48;0.40;;;;;;;;;;6289023;22;20071;-42
2022/10/25 03:18:58;;;;;;;3.10;0.60;;;;;;;;;;6282233;22;20015;-42
2022/10/25 03:21:25;;;;;;;1.30;0.27;;;;;;;;;;6285915;22;20458;-42
2022/10/25 03:23:52;;;;;;;1.55;0.30;;;;;;;;;;6284365;22;20050;-43
2022/10/25 03:26:20;;;;;;;1.52;0.38;;;;;;;;;;6286418;22;20008;-44
2022/10/25 03:28:46;;;;;;;1.40;0.30;;;;;;;;;;6287505;22;20023;-42
2022/10/25 03:31:15;;;;;;;1.48;0.30;;;;;;;;;;6268519;22;20124;-42
2022/10/25 03:33:42;;;;;;;1.10;0.20;;;;;;;;;;6287730;22;20320;-42
2022/10/25 03:36:08;;;;;;;1.55;0.30;;;;;;;;;;6257478;22;20716;-42
2022/10/25 03:38:35;;;;;;;1.73;0.50;;;;;;;;;;6286999;22;20019;-44
2022/10/25 03:41:01;;;;;;;1.45;0.40;;;;;;;;;;6285371;22;20011;-45
2022/10/25 03:43:28;;;;;;;1.70;0.40;;;;;;;;;;6285044;22;20023;-43
2022/10/25 03:45:54;;;;;;;1.50;0.30;;;;;;;;;;6277885;22;20071;-42
2022/10/25 03:48:22;;;;;;;1.38;0.38;;;;;;;;;;6287424;22;20019;-44
2022/10/25 03:50:49;;;;;;;1.90;0.80;;;;;;;;;;6280399;22;20019;-44
2022/10/25 03:53:15;;;;;;;1.52;0.40;;;;;;;;;;6265164;22;20019;-42
2022/10/25 03:55:42;;;;;;;1.75;0.30;;;;;;;;;;6287701;22;20080;-44
2022/10/25 03:58:08;;;;;;;1.20;0.20;;;;;;;;;;6289148;22;20073;-43
2022/10/25 04:00:35;;;;;;;1.20;0.20;;;;;;;;;;6277739;22;20015;-46
2022/10/25 04:03:01;;;;;;;1.20;0.20;;;;;;;;;;6255956;22;20015;-43
2022/10/25 04:05:30;;;;;;;1.30;0.20;;;;;;;;;;6287039;22;20019;-45
2022/10/25 04:07:56;;;;;;;1.38;0.30;;;;;;;;;;6281220;22;20023;-42
2022/10/25 04:10:23;;;;;;;1.23;0.27;;;;;;;;;;6284408;22;20019;-46
2022/10/25 04:12:51;;;;;;;1.27;0.30;;;;;;;;;;6278099;22;20015;-42
2022/10/25 04:15:18;;;;;;;1.05;0.25;;;;;;;;;;6284549;22;20047;-46
2022/10/25 04:17:48;;;;;;;2.67;0.52;;;;;;;;;;6282872;22;20583;-43
2022/10/25 04:20:14;;;;;;;1.30;0.20;;;;;;;;;;6283915;22;20019;-42
2022/10/25 04:22:42;;;;;;;2.63;0.80;;;;;;;;;;6281561;22;20041;-43
2022/10/25 04:25:09;;;;;;;1.70;0.30;;;;;;;;;;6259979;22;20085;-43
2022/10/25 04:27:35;;;;;;;1.85;0.60;;;;;;;;;;6282167;22;20134;-45
2022/10/25 04:30:02;;;;;;;2.40;0.73;;;;;;;;;;6274314;22;20020;-43
2022/10/25 04:32:28;;;;;;;1.30;0.25;;;;;;;;;;6286427;22;20015;-44
2022/10/25 04:34:55;;;;;;;1.10;0.20;;;;;;;;;;6282216;22;20077;-44
2022/10/25 04:37:21;;;;;;;1.20;0.20;;;;;;;;;;6286569;22;20015;-42
2022/10/25 04:39:49;;;;;;;1.67;0.38;;;;;;;;;;6285358;22;20073;-43
2022/10/25 04:42:17;;;;;;;1.90;0.65;;;;;;;;;;6281698;22;20022;-42
2022/10/25 04:44:43;;;;;;;1.17;0.20;;;;;;;;;;6283509;22;20102;-42
2022/10/25 04:47:10;;;;;;;2.20;1.17;;;;;;;;;;6286405;22;20462;-46
2022/10/25 04:49:36;;;;;;;1.05;0.20;;;;;;;;;;6283360;22;20469;-43
2022/10/25 04:52:03;;;;;;;1.35;0.50;;;;;;;;;;6257593;22;20015;-43
2022/10/25 04:54:29;;;;;;;1.20;0.20;;;;;;;;;;6278767;22;20556;-43
2022/10/25 04:56:58;;;;;;;1.42;0.30;;;;;;;;;;6259751;22;20015;-44
2022/10/25 04:59:24;;;;;;;1.37;0.30;;;;;;;;;;6281528;22;20080;-43
2022/10/25 05:01:51;;;;;;;1.33;0.30;;;;;;;;;;6287956;22;20018;-43
2022/10/25 05:04:17;;;;;;;4.20;0.60;;;;;;;;;;6277765;22;20592;-42
2022/10/25 05:06:44;;;;;;;1.75;0.47;;;;;;;;;;6287204;22;20433;-42
2022/10/25 05:09:10;;;;;;;1.35;0.25;;;;;;;;;;6282468;22;20019;-45
2022/10/25 05:11:37;;;;;;;1.30;0.20;;;;;;;;;;6282007;22;20679;-46
2022/10/25 05:14:05;;;;;;;2.22;0.88;;;;;;;;;;6280848;22;20019;-43
2022/10/25 05:16:33;;;;;;;2.80;0.95;;;;;;;;;;6286017;22;20011;-43
2022/10/25 05:19:00;;;;;;;1.55;0.20;;;;;;;;;;6280648;22;20068;-42
2022/10/25 05:21:29;;;;;;;1.52;0.30;;;;;;;;;;6285032;22;20026;-44
2022/10/25 05:23:56;;;;;;;1.47;0.30;;;;;;;;;;6280526;22;20073;-43
2022/10/25 05:26:23;;;;;;;1.33;0.25;;;;;;;;;;6288140;22;20016;-42
2022/10/25 05:28:50;;;;;;;1.60;0.38;;;;;;;;;;6280719;22;20011;-44
2022/10/25 05:31:20;;;;;;;1.52;0.50;;;;;;;;;;6286521;22;20754;-45
2022/10/25 05:33:48;;;;;;;1.50;0.30;;;;;;;;;;6289717;22;20015;-44
2022/10/25 05:36:15;;;;;;;2.27;0.93;;;;;;;;;;6282218;22;20011;-43
2022/10/25 05:38:41;;;;;;;1.60;0.30;;;;;;;;;;6259813;22;20011;-42
2022/10/25 05:41:09;;;;;;;5.40;0.85;;;;;;;;;;6286570;22;20018;-43
2022/10/25 05:43:36;;;;;;;1.30;0.20;;;;;;;;;;6289994;22;20473;-43
2022/10/25 05:46:03;;;;;;;1.60;0.40;;;;;;;;;;6279787;22;20022;-45
2022/10/25 05:48:31;;;;;;;2.60;0.70;;;;;;;;;;6289594;22;20081;-44
2022/10/25 05:51:07;;;;;;;1.80;0.43;;;;;;;;;;6281578;22;20043;-46
2022/10/25 05:53:34;;;;;;;1.73;0.43;;;;;;;;;;6279845;22;20410;-44
2022/10/25 05:56:00;;;;;;;3.78;0.57;;;;;;;;;;6286980;22;20046;-45
2022/10/25 05:58:27;;;;;;;1.00;0.20;;;;;;;;;;6286683;22;20011;-42
2022/10/25 06:00:53;;;;;;;1.20;0.30;;;;;;;;;;6258596;22;20015;-46
2022/10/25 06:03:20;;;;;;;1.13;0.20;;;;;;;;;;6284354;22;20114;-46
2022/10/25 06:05:48;;;;;;;2.38;0.40;;;;;;;;;;6284078;22;20023;-46
2022/10/25 06:08:14;;;;;;;1.55;0.30;;;;;;;;;;6286893;22;20073;-43
2022/10/25 06:10:41;;;;;;;1.55;0.30;;;;;;;;;;6255148;22;20015;-45
2022/10/25 06:13:07;;;;;;;1.70;0.40;;;;;;;;;;6257933;22;20061;-44
2022/10/25 06:15:36;;;;;;;1.50;0.40;;;;;;;;;;6283374;22;20680;-42
2022/10/25 06:18:03;;;;;;;2.40;0.85;;;;;;;;;;6284186;22;20016;-46
2022/10/25 06:20:30;;;;;;;1.40;0.30;;;;;;;;;;6282134;22;20035;-44
2022/10/25 06:22:58;;;;;;;1.15;0.20;;;;;;;;;;6287374;22;20458;-43
2022/10/25 06:25:24;;;;;;;3.00;0.53;;;;;;;;;;6254152;22;20405;-45
2022/10/25 06:27:51;;;;;;;1.98;0.50;;;;;;;;;;6286405;22;20061;-42
2022/10/25 06:30:17;;;;;;;1.98;0.47;;;;;;;;;;6252445;22;20072;-42
2022/10/25 06:32:44;;;;;;;1.50;0.20;;;;;;;;;;6284428;22;20019;-45
2022/10/25 06:35:10;;;;;;;1.55;0.30;;;;;;;;;;6278952;22;20007;-42
2022/10/25 06:37:37;;;;;;;2.03;0.80;;;;;;;;;;6289291;22;20011;-43
2022/10/25 06:40:06;;;;;;;1.55;0.38;;;;;;;;;;6281499;22;20020;-43
2022/10/25 06:42:32;;;;;;;2.53;0.95;;;;;;;;;;6280314;22;20015;-44
2022/10/25 06:44:59;;;;;;;7.53;0.70;;;;;;;;;;6284237;22;20015;-42
2022/10/25 06:47:25;;;;;;;1.40;0.20;;;;;;;;;;6278837;22;20025;-45
2022/10/25 06:49:51;;;;;;;12.37;1.77;;;;;;;;;;6286933;22;20011;-42
2022/10/25 06:52:18;;;;;;;1.50;0.20;;;;;;;;;;6281677;22;20011;-46
2022/10/25 06:54:45;;;;;;;2.53;1.00;;;;;;;;;;6288254;22;20015;-43
2022/10/25 06:57:12;;;;;;;1.38;0.30;;;;;;;;;;6254650;22;20088;-42
2022/10/25 06:59:39;;;;;;;1.35;0.30;;;;;;;;;;6283058;22;20011;-42
2022/10/25 07:02:05;;;;;;;1.40;0.47;;;;;;;;;;6281752;22;20026;-44
2022/10/25 07:04:32;;;;;;;1.75;0.40;;;;;;;;;;6281871;22;20457;-42
2022/10/25 07:06:58;;;;;;;1.60;0.43;;;;;;;;;;6284140;22;20023;-44
2022/10/25 07:09:25;;;;;;;1.50;0.30;;;;;;;;;;6282408;22;20359;-43
2022/10/25 07:11:51;;;;;;;1.67;0.40;;;;;;;;;;6255261;22;20465;-42
2022/10/25 07:14:19;;;;;;;1.40;0.30;;;;;;;;;;6279012;22;20117;-42
2022/10/25 07:16:46;;;;;;;1.35;0.30;;;;;;;;;;6284193;22;20015;-46
2022/10/25 07:19:12;;;;;;;2.78;0.63;;;;;;;;;;6282790;22;20034;-46
2022/10/25 07:21:39;;;;;;;1.40;0.30;;;;;;;;;;6284178;22;20019;-43
2022/10/25 07:24:07;;;;;;;1.55;0.43;;;;;;;;;;6280672;22;20068;-43
2022/10/25 07:26:34;;;;;;;1.43;0.30;;;;;;;;;;6286252;22;20502;-42
2022/10/25 07:29:01;;;;;;;1.75;0.50;;;;;;;;;;6283251;22;20094;-43
2022/10/25 07:31:30;;;;;;;1.98;0.40;;;;;;;;;;6284071;22;20015;-44
2022/10/25 07:33:58;;;;;;;1.67;0.40;;;;;;;;;;6285217;22;20011;-43
2022/10/25 07:36:25;;;;;;;2.60;0.40;;;;;;;;;;6279498;22;20074;-44
2022/10/25 07:38:52;;;;;;;1.70;0.40;;;;;;;;;;6287345;22;20015;-43
2022/10/25 07:41:18;;;;;;;1.77;0.40;;;;;;;;;;6286940;22;20065;-43
2022/10/25 07:43:45;;;;;;;1.48;0.38;;;;;;;;;;6253559;22;20019;-43
2022/10/25 07:46:11;;;;;;;1.65;0.35;;;;;;;;;;6285620;22;20024;-45
2022/10/25 07:48:39;;;;;;;1.73;0.47;;;;;;;;;;6282575;22;20081;-44
2022/10/25 07:51:07;;;;;;;1.40;0.30;;;;;;;;;;6278933;22;20057;-44
2022/10/25 07:53:33;;;;;;;1.58;0.35;;;;;;;;;;6282791;22;20072;-42
2022/10/25 07:56:00;;;;;;;1.50;0.32;;;;;;;;;;6253359;22;20484;-43
2022/10/25 07:58:26;;;;;;;3.47;0.65;;;;;;;;;;6282911;22;20595;-43
2022/10/25 08:00:53;;;;;;;1.30;0.30;;;;;;;;;;6282205;22;20065;-42
2022/10/25 08:03:19;;;;;;;3.73;0.93;;;;;;;;;;6252108;22;20019;-46
2022/10/25 08:05:48;;;;;;;1.73;0.52;;;;;;;;;;6279968;22;20027;-43
2022/10/25 08:08:14;;;;;;;1.60;0.30;;;;;;;;;;6285094;22;20022;-44
2022/10/25 08:10:41;;;;;;;1.60;0.30;;;;;;;;;;6272682;22;20297;-44
2022/10/25 08:13:08;;;;;;;1.55;0.38;;;;;;;;;;6251811;22;20015;-43
2022/10/25 08:15:35;;;;;;;2.67;0.80;;;;;;;;;;6253882;22;20026;-43
2022/10/25 08:18:03;;;;;;;1.30;0.30;;;;;;;;;;6243257;22;20023;-43
2022/10/25 08:20:30;;;;;;;1.75;0.40;;;;;;;;;;6269388;22;20514;-42
2022/10/25 08:22:58;;;;;;;1.50;0.40;;;;;;;;;;6268113;22;20385;-42
2022/10/25 08:25:25;;;;;;;1.75;0.50;;;;;;;;;;6265006;22;20782;-42
2022/10/25 08:27:52;;;;;;;2.87;1.13;;;;;;;;;;6269169;22;20023;-44
2022/10/25 08:30:18;;;;;;;1.65;0.40;;;;;;;;;;6268552;22;20081;-43
2022/10/25 08:32:45;;;;;;;1.85;0.40;;;;;;;;;;6268668;22;20035;-44
2022/10/25 08:35:11;;;;;;;1.23;0.20;;;;;;;;;;6266279;22;20335;-45
2022/10/25 08:37:38;;;;;;;1.33;0.28;;;;;;;;;;6270639;22;20466;-44
2022/10/25 08:40:07;;;;;;;1.20;0.30;;;;;;;;;;6262246;22;20688;-48
2022/10/25 08:42:40;;;;;;;1.50;0.57;;;;;;;;;;6270823;22;20011;-46
2022/10/25 08:45:13;;;;;;;1.85;0.50;;;;;;;;;;6264541;22;20050;-43
2022/10/25 08:47:41;;;;;;;1.38;0.28;;;;;;;;;;6266684;22;20019;-43
2022/10/25 08:50:13;;;;;;;1.73;0.45;;;;;;;;;;6245240;22;20477;-43
2022/10/25 08:52:41;;;;;;;1.70;0.40;;;;;;;;;;6273583;22;20046;-43
2022/10/25 08:55:14;;;;;;;2.00;0.45;;;;;;;;;;6261046;22;20023;-43
2022/10/25 08:57:45;;;;;;;3.63;1.15;;;;;;;;;;6267990;22;20011;-43
2022/10/25 09:00:16;;;;;;;2.65;0.98;;;;;;;;;;6270080;22;20022;-42
2022/10/25 09:02:45;;;;;;;1.77;0.50;;;;;;;;;;6269889;22;20508;-43
2022/10/25 09:05:14;;;;;;;1.63;0.43;;;;;;;;;;6262250;22;20020;-42
2022/10/25 09:07:53;;;;;;;1.30;0.28;;;;;;;;;;6270408;22;20023;-42
2022/10/25 09:10:28;;;;;;;1.80;0.50;;;;;;;;;;6239850;22;20445;-44
2022/10/25 09:12:58;;;;;;;1.63;0.40;;;;;;;;;;6272701;22;20385;-42
2022/10/25 09:15:32;;;;;;;4.07;1.63;;;;;;;;;;6261349;22;20057;-46
2022/10/25 09:18:02;;;;;;;1.60;0.30;;;;;;;;;;6268487;22;20363;-43
2022/10/25 09:20:31;;;;;;;1.83;0.40;;;;;;;;;;6267687;22;20026;-43
2022/10/25 09:22:59;;;;;;;3.13;0.57;;;;;;;;;;6268122;22;20027;-43
2022/10/25 09:25:33;;;;;;;2.10;0.63;;;;;;;;;;6264288;22;20057;-45
2022/10/25 09:28:02;;;;;;;1.80;0.50;;;;;;;;;;6268357;22;20396;-44
2022/10/25 09:30:29;;;;;;;4.63;1.40;;;;;;;;;;6261769;22;20411;-43
2022/10/25 09:33:00;;;;;;;2.00;0.70;;;;;;;;;;6267312;22;20457;-44
2022/10/25 09:35:28;;;;;;;1.83;0.50;;;;;;;;;;6235810;22;20145;-45
2022/10/25 09:37:57;;;;;;;1.85;0.70;;;;;;;;;;6271437;22;20076;-44
2022/10/25 09:40:26;;;;;;;1.90;0.60;;;;;;;;;;6241332;22;20019;-42
2022/10/25 09:42:55;;;;;;;1.50;0.30;;;;;;;;;;6269676;22;20093;-43
2022/10/25 09:45:24;;;;;;;2.33;0.55;;;;;;;;;;6259146;22;20640;-45
2022/10/25 09:47:54;;;;;;;2.75;0.80;;;;;;;;;;6269299;22;20015;-43
2022/10/25 09:50:24;;;;;;;1.85;0.50;;;;;;;;;;6266108;22;20019;-42
2022/10/25 09:52:57;;;;;;;3.25;0.70;;;;;;;;;;6240719;22;20347;-45
2022/10/25 09:55:31;;;;;;;1.63;0.37;;;;;;;;;;6264863;22;20015;-44
2022/10/25 09:58:00;;;;;;;2.50;0.73;;;;;;;;;;6266255;22;20031;-44
2022/10/25 10:00:27;;;;;;;1.90;0.50;;;;;;;;;;6243208;22;20012;-45
2022/10/25 10:02:54;;;;;;;2.20;0.50;;;;;;;;;;6271170;22;20011;-44
2022/10/25 10:05:21;;;;;;;1.45;0.35;;;;;;;;;;6264809;22;20015;-45
2022/10/25 10:07:48;;;;;;;1.73;0.40;;;;;;;;;;6268156;22;20019;-43
2022/10/25 10:10:17;;;;;;;3.85;1.25;;;;;;;;;;6269461;22;20015;-42
2022/10/25 10:12:46;;;;;;;1.83;0.57;;;;;;;;;;6260936;22;20721;-43
2022/10/25 10:15:19;;;;;;;1.85;0.57;;;;;;;;;;6229162;22;20023;-45
2022/10/25 10:17:45;;;;;;;5.50;0.80;;;;;;;;;;6271804;22;20515;-45
2022/10/25 10:20:13;;;;;;;1.70;0.40;;;;;;;;;;6269078;22;20020;-43
2022/10/25 10:22:44;;;;;;;2.72;0.82;;;;;;;;;;6270384;22;20489;-45
2022/10/25 10:25:15;;;;;;;3.17;0.85;;;;;;;;;;6258286;22;20424;-44
2022/10/25 10:27:41;;;;;;;2.38;0.93;;;;;;;;;;6274190;22;20041;-46
2022/10/25 10:30:09;;;;;;;4.55;1.35;;;;;;;;;;6265472;22;20509;-44
2022/10/25 10:32:38;;;;;;;1.73;0.50;;;;;;;;;;6245000;22;20015;-44
2022/10/25 10:35:06;;;;;;;2.38;0.93;;;;;;;;;;6232232;22;20030;-45
2022/10/25 10:37:33;;;;;;;2.10;0.57;;;;;;;;;;6273159;22;20023;-44
2022/10/25 10:40:00;;;;;;;1.27;0.30;;;;;;;;;;6264165;22;20015;-44
2022/10/25 10:42:33;;;;;;;2.60;0.70;;;;;;;;;;6269268;22;20374;-42
2022/10/25 10:45:12;;;;;;;1.90;0.50;;;;;;;;;;6265012;22;20031;-44
2022/10/25 10:47:41;;;;;;;2.65;0.82;;;;;;;;;;6269392;22;20098;-45
2022/10/25 10:50:11;;;;;;;6.65;1.02;;;;;;;;;;6244785;22;20027;-43
2022/10/25 10:52:40;;;;;;;2.15;0.35;;;;;;;;;;6268980;22;20465;-43
2022/10/25 10:55:16;;;;;;;1.70;0.40;;;;;;;;;;6264854;22;20019;-44
2022/10/25 10:57:43;;;;;;;2.83;0.57;;;;;;;;;;6273230;22;20023;-44
2022/10/25 11:00:20;;;;;;;2.03;0.52;;;;;;;;;;6240379;22;20023;-43
2022/10/25 11:02:48;;;;;;;2.00;0.60;;;;;;;;;;6269639;22;20051;-42
2022/10/25 11:05:23;;;;;;;2.65;0.60;;;;;;;;;;6262059;22;20020;-43
2022/10/25 11:07:55;;;;;;;2.15;0.60;;;;;;;;;;6268880;22;20491;-43
2022/10/25 11:10:26;;;;;;;2.30;0.80;;;;;;;;;;6271854;22;20065;-43
2022/10/25 11:13:11;;;;;;;1.80;0.43;;;;;;;;;;6268329;22;20011;-44
2022/10/25 11:15:46;;;;;;;2.03;0.63;;;;;;;;;;6251105;22;20463;-45
2022/10/25 11:18:14;;;;;;;1.95;0.60;;;;;;;;;;6263354;22;20023;-46
2022/10/25 11:20:48;;;;;;;1.73;0.30;;;;;;;;;;6258136;22;20023;-46
2022/10/25 11:23:20;;;;;;;1.83;0.57;;;;;;;;;;6268418;22;20743;-45
2022/10/25 11:25:50;;;;;;;1.77;0.47;;;;;;;;;;6263752;22;20023;-46
2022/10/25 11:28:23;;;;;;;2.10;0.70;;;;;;;;;;6265768;22;20762;-44
2022/10/25 11:30:56;;;;;;;1.60;0.40;;;;;;;;;;6269108;22;20489;-44
2022/10/25 11:33:33;;;;;;;1.65;0.40;;;;;;;;;;6269883;22;20511;-44
2022/10/25 11:36:08;;;;;;;1.47;0.30;;;;;;;;;;6264417;22;20113;-45
2022/10/25 11:38:47;;;;;;;2.63;0.70;;;;;;;;;;6269261;22;20129;-44
2022/10/25 11:41:22;;;;;;;3.38;0.70;;;;;;;;;;6271964;22;20019;-42
2022/10/25 11:43:54;;;;;;;2.05;0.52;;;;;;;;;;6262551;22;20022;-43
2022/10/25 11:46:26;;;;;;;1.67;0.50;;;;;;;;;;6271116;22;20019;-44
2022/10/25 11:49:02;;;;;;;1.70;0.40;;;;;;;;;;6267850;22;20015;-44
2022/10/25 11:51:32;;;;;;;1.60;0.40;;;;;;;;;;6269288;22;20241;-43
2022/10/25 11:54:07;;;;;;;3.25;0.65;;;;;;;;;;6231586;22;20015;-44
2022/10/25 11:56:36;;;;;;;1.83;0.52;;;;;;;;;;6273321;22;20023;-44
2022/10/25 11:59:09;;;;;;;1.90;0.50;;;;;;;;;;6265896;22;20533;-45
2022/10/25 12:01:40;;;;;;;1.87;0.50;;;;;;;;;;6273449;22;20015;-45
2022/10/25 12:04:21;;;;;;;2.00;0.80;;;;;;;;;;6255434;22;20046;-42
2022/10/25 12:06:51;;;;;;;1.95;0.50;;;;;;;;;;6263076;22;20070;-43
2022/10/25 12:09:22;;;;;;;2.15;0.50;;;;;;;;;;6228536;22;20620;-44
2022/10/25 12:11:51;;;;;;;1.58;0.30;;;;;;;;;;6264714;22;20327;-44
2022/10/25 12:14:22;;;;;;;2.17;0.60;;;;;;;;;;6255983;22;20457;-43
2022/10/25 12:16:49;;;;;;;2.40;0.57;;;;;;;;;;6265687;22;20015;-48
2022/10/25 12:19:21;;;;;;;2.80;0.60;;;;;;;;;;6265505;22;20023;-42
2022/10/25 12:21:51;;;;;;;1.60;0.35;;;;;;;;;;6261951;22;20016;-42
2022/10/25 12:24:21;;;;;;;1.90;0.50;;;;;;;;;;6258999;22;20280;-42
2022/10/25 12:26:48;;;;;;;1.77;0.50;;;;;;;;;;6261769;22;20438;-42
2022/10/25 12:29:17;;;;;;;2.13;0.52;;;;;;;;;;6268732;22;20026;-43
2022/10/25 12:31:45;;;;;;;2.63;0.75;;;;;;;;;;6263944;22;20026;-44
2022/10/25 12:34:15;;;;;;;1.65;0.40;;;;;;;;;;6257305;22;20023;-44
2022/10/25 12:36:44;;;;;;;1.75;0.50;;;;;;;;;;6266076;22;20438;-46
2022/10/25 12:39:13;;;;;;;1.87;0.57;;;;;;;;;;6266336;22;20022;-43
2022/10/25 12:41:43;;;;;;;1.42;0.32;;;;;;;;;;6265176;22;20015;-45
2022/10/25 12:44:21;;;;;;;2.25;0.63;;;;;;;;;;6230859;22;20019;-45
2022/10/25 12:46:55;;;;;;;1.30;0.30;;;;;;;;;;6265911;22;20195;-44
2022/10/25 12:49:45;;;;;;;2.10;0.60;;;;;;;;;;6262363;22;20014;-44
2022/10/25 12:52:23;;;;;;;2.83;0.60;;;;;;;;;;6265079;22;20022;-43
2022/10/25 12:55:05;;;;;;;1.88;0.50;;;;;;;;;;6255872;22;20019;-45
2022/10/25 12:57:36;;;;;;;1.90;0.50;;;;;;;;;;6265616;22;20019;-44
2022/10/25 13:00:08;;;;;;;2.40;0.55;;;;;;;;;;6264996;22;20023;-42
2022/10/25 13:02:54;;;;;;;1.73;0.47;;;;;;;;;;6260185;22;20093;-43
2022/10/25 13:05:30;;;;;;;2.83;0.70;;;;;;;;;;6235067;22;20072;-45
2022/10/25 13:07:58;;;;;;;2.60;0.65;;;;;;;;;;6261288;22;20019;-43
2022/10/25 13:10:25;;;;;;;2.10;0.60;;;;;;;;;;6261724;22;20023;-44
2022/10/25 13:12:58;;;;;;;1.65;0.43;;;;;;;;;;6265701;22;20349;-43
2022/10/25 13:15:25;;;;;;;2.88;0.70;;;;;;;;;;6254564;22;20026;-42
2022/10/25 13:18:02;;;;;;;3.37;1.30;;;;;;;;;;6270969;22;20077;-43
2022/10/25 13:20:45;;;;;;;2.38;0.68;;;;;;;;;;6269638;22;20026;-44
2022/10/25 13:23:31;;;;;;;2.20;0.60;;;;;;;;;;6282833;22;20023;-42
2022/10/25 13:26:07;;;;;;;1.80;0.50;;;;;;;;;;6272818;22;20266;-43
2022/10/25 13:28:42;;;;;;;1.92;0.50;;;;;;;;;;6270499;22;20505;-47
2022/10/25 13:31:33;;;;;;;1.87;0.50;;;;;;;;;;6268756;22;20364;-47
2022/10/25 13:34:14;;;;;;;1.90;0.50;;;;;;;;;;6231762;22;20541;-44
2022/10/25 13:36:47;;;;;;;3.38;1.02;;;;;;;;;;6268897;22;20521;-45
2022/10/25 13:39:15;;;;;;;2.72;0.77;;;;;;;;;;6269085;22;20015;-43
2022/10/25 13:41:44;;;;;;;2.08;0.68;;;;;;;;;;6207144;22;20421;-47
2022/10/25 13:44:18;;;;;;;1.87;0.50;;;;;;;;;;6250072;22;20015;-42
2022/10/25 13:46:44;;;;;;;2.03;0.55;;;;;;;;;;6266583;22;20276;-44
2022/10/25 13:49:38;;;;;;;2.13;0.60;;;;;;;;;;6265232;22;20042;-43
2022/10/25 13:52:05;;;;;;;2.15;0.68;;;;;;;;;;6191998;22;20039;-45
2022/10/25 13:54:42;;;;;;;5.90;1.80;;;;;;;;;;6252518;22;20732;-43
2022/10/25 13:57:23;;;;;;;2.23;0.57;;;;;;;;;;6269730;22;20015;-45
2022/10/25 14:00:01;;;;;;;2.10;0.60;;;;;;;;;;6271087;22;20015;-46
2022/10/25 14:02:27;;;;;;;2.65;0.98;;;;;;;;;;6267705;22;20015;-43
2022/10/25 14:04:54;;;;;;;1.92;0.50;;;;;;;;;;6265797;22;20061;-43
2022/10/25 14:07:40;;;;;;;2.55;0.77;;;;;;;;;;6267489;22;20447;-45
2022/10/25 14:10:07;;;;;;;1.80;0.50;;;;;;;;;;6270172;22;20072;-43
2022/10/25 14:12:35;;;;;;;2.83;0.60;;;;;;;;;;6268113;22;20029;-43
2022/10/25 14:15:07;;;;;;;2.00;0.57;;;;;;;;;;6265137;22;20114;-43
2022/10/25 14:17:35;;;;;;;1.80;0.57;;;;;;;;;;6270558;22;20019;-43
2022/10/25 14:20:03;;;;;;;3.53;0.68;;;;;;;;;;6268992;22;20053;-44
2022/10/25 14:22:33;;;;;;;1.90;0.40;;;;;;;;;;6243449;22;20397;-43
2022/10/25 14:25:02;;;;;;;1.85;0.50;;;;;;;;;;6261853;22;20134;-43
2022/10/25 14:27:29;;;;;;;2.58;0.95;;;;;;;;;;6272498;22;20019;-45
2022/10/25 14:30:13;;;;;;;3.65;0.70;;;;;;;;;;6269553;22;20023;-42
2022/10/25 14:32:40;;;;;;;1.88;0.38;;;;;;;;;;6272595;22;20012;-43
2022/10/25 14:35:12;;;;;;;2.60;1.00;;;;;;;;;;6255470;22;20020;-42
2022/10/25 14:37:41;;;;;;;1.88;0.55;;;;;;;;;;6271734;22;20011;-43
2022/10/25 14:40:15;;;;;;;1.90;0.50;;;;;;;;;;6243772;22;20027;-43
2022/10/25 14:42:42;;;;;;;1.90;0.50;;;;;;;;;;6272404;22;20316;-43
2022/10/25 14:45:17;;;;;;;2.28;0.88;;;;;;;;;;6260307;22;20072;-42
2022/10/25 14:47:44;;;;;;;2.03;0.60;;;;;;;;;;6268742;22;20530;-43
2022/10/25 14:50:13;;;;;;;2.65;0.75;;;;;;;;;;6267477;22;20341;-46
2022/10/25 14:52:41;;;;;;;2.65;0.93;;;;;;;;;;6240257;22;20393;-45
2022/10/25 14:55:16;;;;;;;2.50;1.02;;;;;;;;;;6255507;22;20029;-43